Time;durP1;ratioP1;P1;durP2;ratioP2;P2;SDS_P1;SDS_P2;PMS_P1;PMS_P2;Temp;Humidity;BMP_temperature;BMP_pressure;BME280_temperature;BME280_humidity;BME280_pressure;Samples;Min_cycle;Max_cycle;Signal;HPM_P1;HPM_P2
2022/12/21 00:01:20;;;;;;;108.45;63.40;;;7.20;99.90;;;;;;4936964;28;20039;-70
2022/12/21 00:03:51;;;;;;;85.80;53.80;;;7.20;99.90;;;;;;4956093;28;20073;-70
2022/12/21 00:06:18;;;;;;;93.35;50.08;;;7.20;99.90;;;;;;4941241;28;20475;-70
2022/12/21 00:08:46;;;;;;;94.82;50.25;;;7.20;99.90;;;;;;4941713;28;20047;-71
2022/12/21 00:11:13;;;;;;;93.05;49.17;;;7.20;99.90;;;;;;4952450;28;20411;-71
2022/12/21 00:13:41;;;;;;;90.65;49.97;;;7.30;99.90;;;;;;4942813;28;20047;-71
2022/12/21 00:16:20;;;;;;;120.10;53.83;;;7.30;99.90;;;;;;4934748;28;20545;-71
2022/12/21 00:18:49;;;;;;;98.93;50.20;;;7.30;99.90;;;;;;4946764;28;20142;-70
2022/12/21 00:21:24;;;;;;;108.43;53.10;;;7.30;99.90;;;;;;4939119;28;20478;-71
2022/12/21 00:23:53;;;;;;;101.70;49.95;;;7.30;99.90;;;;;;4941629;28;20541;-70
2022/12/21 00:26:22;;;;;;;107.68;51.70;;;7.30;99.90;;;;;;4938189;28;20047;-70
2022/12/21 00:28:50;;;;;;;104.03;51.75;;;7.20;99.90;;;;;;4956711;28;20146;-70
2022/12/21 00:31:20;;;;;;;104.68;50.60;;;7.10;99.90;;;;;;4936411;28;20573;-70
2022/12/21 00:33:47;;;;;;;111.13;52.88;;;7.10;99.90;;;;;;4940893;28;20137;-71
2022/12/21 00:36:16;;;;;;;112.80;52.40;;;7.10;99.90;;;;;;4952355;28;20069;-70
2022/12/21 00:38:46;;;;;;;126.40;54.17;;;7.10;99.90;;;;;;4959063;28;20066;-70
2022/12/21 00:41:17;;;;;;;110.47;51.80;;;7.20;99.90;;;;;;4970940;28;20065;-70
2022/12/21 00:43:44;;;;;;;123.20;53.65;;;7.20;99.90;;;;;;4958716;28;20050;-71
2022/12/21 00:46:20;;;;;;;142.20;56.10;;;7.10;99.90;;;;;;4924240;28;20509;-69
2022/12/21 00:48:47;;;;;;;136.45;56.92;;;7.20;99.90;;;;;;4969374;28;20549;-71
2022/12/21 00:51:17;;;;;;;127.68;54.45;;;7.20;99.90;;;;;;4962029;28;20053;-71
2022/12/21 00:53:45;;;;;;;122.75;53.63;;;7.20;99.90;;;;;;4975115;28;20046;-70
2022/12/21 00:56:12;;;;;;;122.20;52.88;;;7.20;99.90;;;;;;4955258;28;20512;-70
2022/12/21 00:58:40;;;;;;;129.05;55.67;;;7.10;99.90;;;;;;4959932;28;20164;-71
2022/12/21 01:01:11;;;;;;;96.50;46.25;;;7.20;99.90;;;;;;4955820;28;20644;-71
2022/12/21 01:03:37;;;;;;;101.70;48.00;;;7.20;99.90;;;;;;4967567;28;20046;-70
2022/12/21 01:06:04;;;;;;;105.13;47.85;;;7.20;99.90;;;;;;4957888;28;20367;-69
2022/12/21 01:08:31;;;;;;;95.00;47.55;;;7.20;99.90;;;;;;4973645;28;20150;-70
2022/12/21 01:11:00;;;;;;;116.72;49.72;;;7.10;99.90;;;;;;4958337;28;20053;-70
2022/12/21 01:13:28;;;;;;;122.30;50.58;;;7.10;99.90;;;;;;4956414;28;20047;-71
2022/12/21 01:15:55;;;;;;;119.38;52.35;;;7.10;99.90;;;;;;4957365;28;20053;-70
2022/12/21 01:18:22;;;;;;;127.93;53.75;;;7.10;99.90;;;;;;4956325;28;20517;-71
2022/12/21 01:20:54;;;;;;;117.28;54.22;;;7.10;99.90;;;;;;4958506;28;20076;-71
2022/12/21 01:23:22;;;;;;;115.47;52.15;;;7.10;99.90;;;;;;4955041;28;20086;-70
2022/12/21 01:25:49;;;;;;;109.18;49.95;;;7.00;99.90;;;;;;4964312;28;20058;-71
2022/12/21 01:28:17;;;;;;;121.28;54.75;;;7.00;99.90;;;;;;4970943;28;20055;-70
2022/12/21 01:30:45;;;;;;;117.30;51.78;;;7.10;99.90;;;;;;4958009;28;20046;-71
2022/12/21 01:33:15;;;;;;;114.70;49.65;;;7.00;99.90;;;;;;4971606;28;20533;-71
2022/12/21 01:35:42;;;;;;;121.72;54.35;;;7.00;99.90;;;;;;4959417;28;20046;-70
2022/12/21 01:38:10;;;;;;;134.27;52.75;;;7.00;99.90;;;;;;4959903;28;20815;-70
2022/12/21 01:40:37;;;;;;;119.78;52.85;;;7.00;99.90;;;;;;4957832;28;20046;-71
2022/12/21 01:43:42;;;;;;;110.00;49.10;;;7.00;99.90;;;;;;4959282;28;20051;-70
2022/12/21 01:46:15;;;;;;;148.95;56.50;;;7.00;99.90;;;;;;4953312;28;20140;-70
2022/12/21 01:48:48;;;;;;;143.18;55.45;;;7.00;99.90;;;;;;4958544;28;20054;-71
2022/12/21 01:51:16;;;;;;;118.57;51.25;;;7.00;99.90;;;;;;4953144;28;20074;-69
2022/12/21 01:53:49;;;;;;;174.70;58.80;;;7.00;99.90;;;;;;4959377;28;20517;-70
2022/12/21 01:56:21;;;;;;;144.75;55.30;;;7.00;99.90;;;;;;4955100;28;20045;-71
2022/12/21 01:58:49;;;;;;;144.32;57.10;;;7.10;99.90;;;;;;4974344;28;20080;-70
2022/12/21 02:01:16;;;;;;;152.98;55.67;;;7.10;99.90;;;;;;4954268;28;20564;-69
2022/12/21 02:03:49;;;;;;;160.95;56.72;;;7.10;99.90;;;;;;4968251;28;20047;-71
2022/12/21 02:06:27;;;;;;;138.15;56.28;;;7.10;99.90;;;;;;4954901;28;20062;-70
2022/12/21 02:08:54;;;;;;;153.90;54.50;;;7.10;99.90;;;;;;4949747;28;20494;-71
2022/12/21 02:11:21;;;;;;;128.80;55.25;;;7.10;99.90;;;;;;4956083;28;20297;-71
2022/12/21 02:13:48;;;;;;;126.03;53.92;;;7.20;99.90;;;;;;4980014;28;20239;-71
2022/12/21 02:16:19;;;;;;;140.93;52.55;;;7.30;99.90;;;;;;4954955;28;20461;-70
2022/12/21 02:19:03;;;;;;;215.48;62.03;;;7.30;99.90;;;;;;4958327;28;20134;-71
2022/12/21 02:21:42;;;;;;;179.15;59.33;;;7.40;99.90;;;;;;4955162;28;20066;-71
2022/12/21 02:24:23;;;;;;;134.90;51.38;;;7.30;99.90;;;;;;4973108;28;20312;-71
2022/12/21 02:27:13;;;;;;;138.30;51.55;;;7.30;99.90;;;;;;4951904;28;20047;-71
2022/12/21 02:30:01;;;;;;;126.88;50.00;;;7.20;99.90;;;;;;4953803;28;20149;-70
2022/12/21 02:32:52;;;;;;;119.00;48.38;;;7.10;99.90;;;;;;4959080;28;20119;-70
2022/12/21 02:35:57;;;;;;;118.22;48.60;;;7.10;99.90;;;;;;4958826;28;20085;-70
2022/12/21 02:38:59;;;;;;;103.60;44.97;;;7.10;99.90;;;;;;4961714;28;20485;-70
2022/12/21 02:41:37;;;;;;;115.32;47.03;;;7.20;99.90;;;;;;4960132;28;20481;-70
2022/12/21 02:44:34;;;;;;;158.70;50.28;;;7.20;99.90;;;;;;4975923;28;20046;-70
2022/12/21 02:47:08;;;;;;;283.60;60.63;;;7.30;99.90;;;;;;4943146;28;20049;-70
2022/12/21 02:49:50;;;;;;;142.02;47.88;;;7.20;99.90;;;;;;4975171;28;20134;-71
2022/12/21 02:52:43;;;;;;;207.45;56.42;;;7.30;99.90;;;;;;4973502;28;20051;-69
2022/12/21 02:55:12;;;;;;;270.88;61.78;;;7.30;99.90;;;;;;4951108;28;20309;-70
2022/12/21 02:57:42;;;;;;;226.20;54.95;;;7.20;99.90;;;;;;4955724;28;20081;-71
2022/12/21 03:00:14;;;;;;;398.50;69.10;;;7.30;99.90;;;;;;4963347;28;20047;-70
2022/12/21 03:06:24;;;;;;;377.08;65.25;;;7.50;99.90;;;;;;4942109;28;20108;-70
2022/12/21 03:09:27;;;;;;;423.20;69.28;;;7.60;99.90;;;;;;4976710;28;20061;-71
2022/12/21 03:12:06;;;;;;;577.60;74.10;;;7.60;99.90;;;;;;4946540;28;20142;-70
2022/12/21 03:15:01;;;;;;;493.00;65.07;;;7.80;99.90;;;;;;4941561;28;20039;-71
2022/12/21 03:17:40;;;;;;;588.65;71.15;;;7.80;99.90;;;;;;4953570;28;20047;-70
2022/12/21 03:20:20;;;;;;;669.58;73.75;;;7.80;99.90;;;;;;4924441;28;20083;-70
2022/12/21 03:23:12;;;;;;;570.47;67.78;;;7.90;99.90;;;;;;4971455;28;20158;-70
2022/12/21 03:25:55;;;;;;;621.85;72.97;;;8.00;99.90;;;;;;4957089;28;20039;-70
2022/12/21 03:28:27;;;;;;;790.72;87.20;;;8.10;99.90;;;;;;4938858;28;20054;-71
2022/12/21 03:30:58;;;;;;;524.88;62.20;;;8.20;99.90;;;;;;4941056;28;20059;-71
2022/12/21 03:33:29;;;;;;;578.05;66.93;;;8.30;99.90;;;;;;4940596;28;20059;-70
2022/12/21 03:36:04;;;;;;;756.33;80.72;;;8.30;99.90;;;;;;4955502;28;20043;-70
2022/12/21 03:38:41;;;;;;;669.92;73.38;;;8.30;99.90;;;;;;4956228;28;20531;-70
2022/12/21 03:41:13;;;;;;;621.25;67.38;;;8.30;99.90;;;;;;4938910;28;20063;-70
2022/12/21 03:43:42;;;;;;;706.92;73.63;;;8.30;99.90;;;;;;4955790;28;20051;-71
2022/12/21 03:46:17;;;;;;;638.40;68.55;;;8.40;99.90;;;;;;4937339;28;20138;-70
2022/12/21 03:49:17;;;;;;;668.63;68.75;;;8.40;99.90;;;;;;4941517;28;20606;-70
2022/12/21 03:51:52;;;;;;;619.15;63.58;;;8.40;99.90;;;;;;4943159;28;20035;-71
2022/12/21 03:54:43;;;;;;;715.35;69.88;;;8.40;99.90;;;;;;4938614;28;20043;-71
2022/12/21 03:57:10;;;;;;;672.67;65.95;;;8.40;99.90;;;;;;4943536;28;20036;-70
2022/12/21 03:59:41;;;;;;;586.85;57.47;;;8.40;99.90;;;;;;4940082;28;20231;-70
2022/12/21 04:02:22;;;;;;;627.97;61.92;;;8.40;99.90;;;;;;4992790;23;20330;-73
2022/12/21 04:05:03;;;;;;;644.00;62.28;;;8.40;99.90;;;;;;4989586;28;20061;-73
2022/12/21 04:07:33;;;;;;;521.63;52.38;;;8.40;99.90;;;;;;4971702;28;20053;-72
2022/12/21 04:10:08;;;;;;;509.75;50.83;;;8.40;99.90;;;;;;4994152;28;20133;-73
2022/12/21 04:12:37;;;;;;;687.17;67.18;;;8.40;99.90;;;;;;4988679;28;20058;-73
2022/12/21 04:15:13;;;;;;;553.33;54.60;;;8.40;99.90;;;;;;4989683;28;20219;-72
2022/12/21 04:17:41;;;;;;;631.50;62.13;;;8.40;99.90;;;;;;4979006;28;20046;-73
2022/12/21 04:20:14;;;;;;;589.15;57.70;;;8.50;99.90;;;;;;4975567;28;20085;-73
2022/12/21 04:28:17;;;;;;;616.88;60.78;;;8.40;99.90;;;;;;4995569;28;20046;-72
2022/12/21 04:31:04;;;;;;;629.40;64.07;;;8.40;99.90;;;;;;4989221;28;20030;-72
2022/12/21 04:33:31;;;;;;;599.60;57.90;;;8.50;99.90;;;;;;4991752;28;20034;-73
2022/12/21 04:38:56;;;;;;;603.65;57.58;;;8.50;99.90;;;;;;4956385;28;20077;-73
2022/12/21 04:41:23;;;;;;;542.70;57.45;;;8.50;99.90;;;;;;5024680;28;20046;-72
2022/12/21 04:43:50;;;;;;;691.30;68.28;;;8.50;99.90;;;;;;4993177;28;20038;-72
2022/12/21 04:46:18;;;;;;;556.88;56.10;;;8.60;99.90;;;;;;4991781;28;20427;-73
2022/12/21 04:48:46;;;;;;;615.42;56.92;;;8.70;99.90;;;;;;4973950;28;20136;-72
2022/12/21 04:51:18;;;;;;;632.78;59.53;;;8.60;99.90;;;;;;4991854;28;20479;-73
2022/12/21 04:53:46;;;;;;;574.83;51.72;;;8.60;99.90;;;;;;4993302;28;20056;-72
2022/12/21 04:56:13;;;;;;;571.15;50.33;;;8.60;99.90;;;;;;4996123;28;20236;-73
2022/12/21 04:58:40;;;;;;;604.28;55.10;;;8.60;99.90;;;;;;4995629;28;20274;-72
2022/12/21 05:01:12;;;;;;;643.28;58.45;;;8.60;99.90;;;;;;4989573;28;20042;-73
2022/12/21 05:03:41;;;;;;;512.63;51.97;;;8.60;99.90;;;;;;4995324;28;20423;-72
2022/12/21 05:06:09;;;;;;;623.25;58.42;;;8.60;99.90;;;;;;4976999;28;20072;-73
2022/12/21 05:08:37;;;;;;;661.83;62.20;;;8.60;99.90;;;;;;4996711;28;20494;-72
2022/12/21 05:11:23;;;;;;;641.13;56.70;;;8.60;99.90;;;;;;4971040;28;20034;-72
2022/12/21 05:13:51;;;;;;;603.53;50.75;;;8.50;99.90;;;;;;4993812;28;20081;-73
2022/12/21 05:16:19;;;;;;;618.65;57.38;;;8.50;99.90;;;;;;4987197;28;20427;-72
2022/12/21 05:18:50;;;;;;;652.75;56.53;;;8.50;99.90;;;;;;4988918;28;20112;-72
2022/12/21 05:21:17;;;;;;;664.45;59.55;;;8.50;99.90;;;;;;4996499;28;20128;-72
2022/12/21 05:23:44;;;;;;;698.53;59.50;;;8.50;99.90;;;;;;4989278;28;20050;-72
2022/12/21 05:26:12;;;;;;;695.28;64.68;;;8.50;99.90;;;;;;5022595;28;20046;-72
2022/12/21 05:28:43;;;;;;;733.72;75.95;;;8.50;99.90;;;;;;4992366;28;20112;-72
2022/12/21 05:31:11;;;;;;;689.67;70.35;;;8.50;99.90;;;;;;4988536;28;20146;-72
2022/12/21 05:33:38;;;;;;;784.95;76.40;;;8.50;99.90;;;;;;4996664;28;20380;-72
2022/12/21 05:36:07;;;;;;;684.47;64.50;;;8.60;99.90;;;;;;4990267;28;20042;-73
2022/12/21 05:38:33;;;;;;;642.38;61.53;;;8.50;99.90;;;;;;4987063;28;20160;-72
2022/12/21 05:41:01;;;;;;;684.88;65.60;;;8.60;99.90;;;;;;4998826;28;20134;-72
2022/12/21 05:43:28;;;;;;;672.95;64.25;;;8.60;99.90;;;;;;4985973;28;20294;-72
2022/12/21 05:46:00;;;;;;;595.47;56.80;;;8.60;99.90;;;;;;4978654;28;20392;-71
2022/12/21 05:48:26;;;;;;;670.28;61.55;;;8.60;99.90;;;;;;4970920;28;20561;-72
2022/12/21 05:50:53;;;;;;;630.00;56.22;;;8.60;99.90;;;;;;4993548;28;20050;-72
2022/12/21 05:53:20;;;;;;;694.33;60.47;;;8.60;99.90;;;;;;4993342;28;20524;-72
2022/12/21 05:55:46;;;;;;;561.63;56.95;;;8.60;99.90;;;;;;4992650;28;20038;-72
2022/12/21 05:58:14;;;;;;;552.38;51.50;;;8.60;99.90;;;;;;4990587;28;20041;-72
2022/12/21 06:00:41;;;;;;;506.45;50.13;;;8.60;99.90;;;;;;4995483;28;20103;-73
2022/12/21 06:03:07;;;;;;;605.38;62.13;;;8.60;99.90;;;;;;4992528;28;20189;-72
2022/12/21 06:05:35;;;;;;;592.03;63.83;;;8.50;99.90;;;;;;4999086;28;20620;-73
2022/12/21 06:08:02;;;;;;;647.63;71.18;;;8.50;99.90;;;;;;4999945;28;20044;-72
2022/12/21 06:10:29;;;;;;;684.55;93.50;;;8.50;99.90;;;;;;4997785;28;20049;-73
2022/12/21 06:12:56;;;;;;;648.03;84.45;;;8.50;99.90;;;;;;4987522;28;20044;-72
2022/12/21 06:15:23;;;;;;;495.70;63.72;;;8.40;99.90;;;;;;5008091;28;20528;-73
2022/12/21 06:17:49;;;;;;;496.83;66.55;;;8.50;99.90;;;;;;4995744;28;20614;-72
2022/12/21 06:20:16;;;;;;;444.38;54.80;;;8.50;99.90;;;;;;4998311;28;20611;-73
2022/12/21 06:22:43;;;;;;;495.27;58.10;;;8.40;99.90;;;;;;4995641;28;20045;-72
2022/12/21 06:25:10;;;;;;;462.15;53.85;;;8.40;99.90;;;;;;4996943;28;20042;-72
2022/12/21 06:27:37;;;;;;;258.10;40.78;;;8.40;99.90;;;;;;4995859;28;20045;-72
2022/12/21 06:30:04;;;;;;;233.73;39.33;;;8.40;99.90;;;;;;4998239;28;20160;-72
2022/12/21 06:32:31;;;;;;;196.75;36.13;;;8.40;99.90;;;;;;5007850;28;20097;-73
2022/12/21 06:34:58;;;;;;;441.42;47.80;;;8.40;99.90;;;;;;4998651;28;20377;-72
2022/12/21 06:37:25;;;;;;;228.88;36.50;;;8.50;99.90;;;;;;4995511;28;20141;-72
2022/12/21 06:39:51;;;;;;;189.48;34.47;;;8.50;99.90;;;;;;4991791;28;20058;-72
2022/12/21 06:42:18;;;;;;;233.25;36.47;;;8.50;99.90;;;;;;4979904;28;20061;-72
2022/12/21 06:44:45;;;;;;;202.10;35.45;;;8.40;99.90;;;;;;4995479;28;20053;-71
2022/12/21 06:47:12;;;;;;;475.52;56.70;;;8.40;99.90;;;;;;4986432;28;20424;-72
2022/12/21 06:49:38;;;;;;;494.35;47.20;;;8.50;99.90;;;;;;4991261;28;20046;-72
2022/12/21 06:52:05;;;;;;;224.90;34.88;;;8.50;99.90;;;;;;4999213;28;20070;-72
2022/12/21 06:54:32;;;;;;;205.15;36.55;;;8.50;99.90;;;;;;4992885;28;20112;-71
2022/12/21 06:56:59;;;;;;;202.95;36.90;;;8.40;99.90;;;;;;5008245;28;20133;-71
2022/12/21 06:59:26;;;;;;;225.73;39.78;;;8.30;99.90;;;;;;4994992;28;20518;-71
2022/12/21 07:01:52;;;;;;;235.60;43.00;;;8.20;99.90;;;;;;4994512;28;20054;-71
2022/12/21 07:04:19;;;;;;;268.75;43.15;;;8.10;99.90;;;;;;4989978;28;20054;-71
2022/12/21 07:06:46;;;;;;;229.60;42.38;;;8.10;99.90;;;;;;4992878;28;20053;-71
2022/12/21 07:09:12;;;;;;;214.55;41.50;;;8.00;99.90;;;;;;5021923;28;20207;-71
2022/12/21 07:11:39;;;;;;;187.38;39.70;;;8.00;99.90;;;;;;4994882;28;20049;-71
2022/12/21 07:14:06;;;;;;;184.70;42.15;;;7.90;99.90;;;;;;5028555;28;20129;-72
2022/12/21 07:16:33;;;;;;;158.93;37.33;;;7.90;99.90;;;;;;4990796;28;20362;-71
2022/12/21 07:18:59;;;;;;;195.23;42.45;;;8.00;99.90;;;;;;4998043;28;20129;-71
2022/12/21 07:21:26;;;;;;;170.55;39.08;;;8.10;99.90;;;;;;4990912;28;21094;-71
2022/12/21 07:23:54;;;;;;;204.07;45.08;;;8.10;99.90;;;;;;4991932;28;20289;-71
2022/12/21 07:26:22;;;;;;;219.07;43.78;;;8.00;99.90;;;;;;4993886;28;20052;-71
2022/12/21 07:28:50;;;;;;;284.20;50.20;;;8.00;99.90;;;;;;4974908;28;20407;-71
2022/12/21 07:31:22;;;;;;;224.13;45.13;;;8.10;99.90;;;;;;4990286;28;20077;-71
2022/12/21 07:33:49;;;;;;;243.07;47.78;;;8.10;99.90;;;;;;4990906;28;20500;-72
2022/12/21 07:36:16;;;;;;;242.35;46.70;;;8.10;99.90;;;;;;4992616;28;20040;-71
2022/12/21 07:38:44;;;;;;;236.85;44.72;;;8.10;99.90;;;;;;4996086;28;20053;-71
2022/12/21 07:41:14;;;;;;;192.38;45.33;;;8.20;99.90;;;;;;4989425;28;20500;-71
2022/12/21 07:43:41;;;;;;;310.70;52.20;;;8.10;99.90;;;;;;4992428;28;20076;-71
2022/12/21 07:46:13;;;;;;;470.95;68.60;;;8.10;99.90;;;;;;4988553;28;20041;-71
2022/12/21 07:48:40;;;;;;;541.38;69.47;;;8.10;99.90;;;;;;4994936;28;20042;-71
2022/12/21 07:51:07;;;;;;;572.65;77.05;;;8.10;99.90;;;;;;4994459;28;20283;-71
2022/12/21 07:53:34;;;;;;;515.45;73.05;;;8.10;99.90;;;;;;4991028;28;20041;-71
2022/12/21 07:56:04;;;;;;;395.40;68.53;;;8.20;99.90;;;;;;4988041;28;20153;-72
2022/12/21 07:58:30;;;;;;;285.25;57.72;;;8.20;99.90;;;;;;4989604;28;20050;-73
2022/12/21 08:01:06;;;;;;;182.95;47.45;;;8.10;99.90;;;;;;4992149;28;20117;-72
2022/12/21 08:03:34;;;;;;;146.02;39.30;;;8.10;99.90;;;;;;5005707;28;20141;-73
2022/12/21 08:06:01;;;;;;;218.48;48.85;;;8.00;99.90;;;;;;4993010;28;20129;-73
2022/12/21 08:08:28;;;;;;;545.22;72.97;;;8.00;99.90;;;;;;4995127;28;20142;-72
2022/12/21 08:10:54;;;;;;;163.75;43.55;;;8.00;99.90;;;;;;4995621;28;20046;-72
2022/12/21 08:13:21;;;;;;;653.30;91.90;;;7.90;99.90;;;;;;4993193;28;20044;-72
2022/12/21 08:15:48;;;;;;;182.90;49.45;;;7.90;99.90;;;;;;4992454;28;20530;-72
2022/12/21 08:18:14;;;;;;;549.42;80.88;;;7.90;99.90;;;;;;4989627;28;20139;-74
2022/12/21 08:20:44;;;;;;;156.75;44.70;;;7.90;99.90;;;;;;4995142;28;20264;-72
2022/12/21 08:23:11;;;;;;;153.75;43.00;;;7.90;99.90;;;;;;4991048;28;20046;-72
2022/12/21 08:25:46;;;;;;;148.77;42.47;;;7.90;99.90;;;;;;4996519;28;20046;-72
2022/12/21 08:28:12;;;;;;;124.60;42.85;;;7.90;99.90;;;;;;4976708;28;20516;-72
2022/12/21 08:30:40;;;;;;;115.43;40.45;;;7.90;99.90;;;;;;4998728;28;20647;-75
2022/12/21 08:33:07;;;;;;;115.65;40.97;;;7.90;99.90;;;;;;4990983;28;20495;-76
2022/12/21 08:35:34;;;;;;;112.65;39.40;;;8.00;99.90;;;;;;4993238;28;20531;-76
2022/12/21 08:38:00;;;;;;;118.03;40.03;;;7.80;99.90;;;;;;4995556;28;20212;-77
2022/12/21 08:40:27;;;;;;;106.13;37.25;;;7.90;99.90;;;;;;4975887;28;20137;-76
2022/12/21 08:42:54;;;;;;;99.75;36.58;;;8.00;99.90;;;;;;4996265;28;20516;-75
2022/12/21 08:45:20;;;;;;;108.22;36.40;;;8.00;99.90;;;;;;4990166;28;20046;-76
2022/12/21 08:47:50;;;;;;;121.57;39.03;;;8.00;99.90;;;;;;4997454;28;20030;-76
2022/12/21 08:50:17;;;;;;;111.95;37.72;;;8.00;99.90;;;;;;4993971;28;20081;-76
2022/12/21 08:52:43;;;;;;;131.30;41.10;;;8.00;99.90;;;;;;4993189;28;20046;-76
2022/12/21 08:55:10;;;;;;;103.20;39.70;;;7.90;99.90;;;;;;5028250;28;20042;-75
2022/12/21 08:57:37;;;;;;;98.15;36.45;;;7.90;99.90;;;;;;4997504;28;20100;-76
2022/12/21 09:00:09;;;;;;;97.10;35.35;;;7.90;99.90;;;;;;4995052;28;20042;-76
2022/12/21 09:02:37;;;;;;;109.68;40.47;;;7.90;99.90;;;;;;4998129;28;20050;-76
2022/12/21 09:05:04;;;;;;;89.95;35.17;;;7.80;99.90;;;;;;4980727;28;20054;-76
2022/12/21 09:07:32;;;;;;;107.82;38.78;;;7.90;99.90;;;;;;4995197;28;20049;-77
2022/12/21 09:09:58;;;;;;;80.18;36.42;;;7.80;99.90;;;;;;4992410;28;20310;-76
2022/12/21 09:12:27;;;;;;;88.30;39.13;;;7.90;99.90;;;;;;4993106;28;20034;-76
2022/12/21 09:14:53;;;;;;;77.25;36.70;;;7.90;99.90;;;;;;4993874;28;20056;-76
2022/12/21 09:17:20;;;;;;;78.03;37.28;;;7.80;99.90;;;;;;4996577;28;20050;-76
2022/12/21 09:19:54;;;;;;;75.68;37.40;;;7.80;99.90;;;;;;4977591;28;20069;-76
2022/12/21 09:22:23;;;;;;;66.22;34.85;;;7.80;99.90;;;;;;4994915;28;20420;-76
2022/12/21 09:24:50;;;;;;;80.30;40.33;;;7.80;99.90;;;;;;4989337;28;20494;-77
2022/12/21 09:27:17;;;;;;;77.25;41.28;;;7.80;99.90;;;;;;5026883;28;20444;-76
2022/12/21 09:29:44;;;;;;;83.43;45.08;;;7.80;99.90;;;;;;4993926;28;20061;-76
2022/12/21 09:32:11;;;;;;;73.18;40.53;;;7.80;99.90;;;;;;4992382;28;20420;-76
2022/12/21 09:34:39;;;;;;;81.32;44.47;;;7.80;99.90;;;;;;4989554;28;20038;-76
2022/12/21 09:37:05;;;;;;;91.40;49.15;;;7.70;99.90;;;;;;5001517;28;20337;-76
2022/12/21 09:39:49;;;;;;;90.40;47.60;;;7.80;99.90;;;;;;4988949;28;20057;-76
2022/12/21 09:42:42;;;;;;;79.80;49.47;;;7.90;99.90;;;;;;4991616;28;20500;-76
2022/12/21 09:45:31;;;;;;;65.47;39.88;;;7.90;99.90;;;;;;4991017;28;20077;-76
2022/12/21 09:48:12;;;;;;;65.80;38.25;;;7.80;99.90;;;;;;4972747;28;20053;-76
2022/12/21 09:50:47;;;;;;;59.80;36.60;;;7.80;99.90;;;;;;4988454;28;20041;-75
2022/12/21 09:53:25;;;;;;;52.90;36.47;;;7.80;99.90;;;;;;4997712;28;20050;-75
2022/12/21 09:55:58;;;;;;;54.65;33.38;;;7.90;99.90;;;;;;4994029;28;20046;-75
2022/12/21 09:58:33;;;;;;;54.45;33.92;;;7.80;99.90;;;;;;4988965;28;20046;-78
2022/12/21 10:01:42;;;;;;;48.42;32.83;;;7.80;99.90;;;;;;4960379;28;1045886;-78
2022/12/21 10:04:33;;;;;;;54.10;33.00;;;7.80;99.90;;;;;;4963357;28;20223;-77
2022/12/21 10:07:44;;;;;;;49.47;32.45;;;7.80;99.90;;;;;;4997865;28;20041;-77
2022/12/21 10:10:45;;;;;;;46.15;30.25;;;7.80;99.90;;;;;;4994033;28;20049;-76
2022/12/21 10:13:27;;;;;;;46.60;30.30;;;7.80;99.90;;;;;;4953401;28;20523;-72
2022/12/21 10:15:56;;;;;;;49.33;30.30;;;7.90;99.90;;;;;;4992049;28;20053;-72
2022/12/21 10:18:47;;;;;;;39.08;27.40;;;8.00;99.90;;;;;;4993651;28;20069;-72
2022/12/21 10:21:49;;;;;;;37.95;27.08;;;8.10;99.90;;;;;;4994851;28;20041;-71
2022/12/21 10:24:23;;;;;;;37.78;28.35;;;8.20;99.90;;;;;;4918905;29;20043;-71
2022/12/21 10:26:56;;;;;;;42.92;27.45;;;8.40;99.90;;;;;;4985693;28;20381;-71
2022/12/21 10:29:31;;;;;;;41.97;30.33;;;8.60;99.90;;;;;;4990467;28;20046;-72
2022/12/21 10:31:59;;;;;;;47.80;32.72;;;8.70;99.90;;;;;;4978394;28;20280;-71
2022/12/21 10:34:32;;;;;;;34.40;25.83;;;8.90;99.90;;;;;;4992773;28;20050;-71
2022/12/21 10:37:08;;;;;;;35.25;24.92;;;8.90;99.90;;;;;;4993316;28;20504;-71
2022/12/21 10:39:35;;;;;;;29.45;23.05;;;9.00;99.90;;;;;;4989586;28;20570;-73
2022/12/21 10:42:27;;;;;;;33.20;24.65;;;9.10;99.90;;;;;;4992732;28;20046;-71
2022/12/21 10:44:54;;;;;;;25.85;21.23;;;9.20;99.90;;;;;;4991716;28;20060;-71
2022/12/21 10:47:23;;;;;;;25.20;21.60;;;9.30;99.90;;;;;;4998578;28;20613;-71
2022/12/21 10:50:04;;;;;;;28.60;24.52;;;9.30;99.90;;;;;;4995503;28;20053;-72
2022/12/21 10:52:47;;;;;;;24.23;16.92;;;9.30;99.90;;;;;;4995725;28;20034;-71
2022/12/21 10:55:19;;;;;;;20.92;16.83;;;9.20;99.90;;;;;;4991135;28;20308;-70
2022/12/21 10:58:00;;;;;;;20.52;16.05;;;9.30;99.90;;;;;;4997583;28;20050;-71
2022/12/21 11:00:36;;;;;;;22.52;16.98;;;9.40;99.90;;;;;;4992380;28;20480;-70
2022/12/21 11:03:05;;;;;;;24.48;17.90;;;9.50;99.90;;;;;;4997095;28;20052;-70
2022/12/21 11:05:41;;;;;;;23.13;16.83;;;9.60;99.90;;;;;;4977049;28;20405;-70
2022/12/21 11:08:13;;;;;;;15.25;13.05;;;9.60;99.90;;;;;;4994678;28;20496;-70
2022/12/21 11:10:46;;;;;;;24.95;17.73;;;9.60;99.90;;;;;;4991612;28;20579;-69
2022/12/21 11:13:22;;;;;;;14.43;12.48;;;9.70;99.90;;;;;;4996607;28;20551;-71
2022/12/21 11:16:02;;;;;;;14.07;11.38;;;9.70;99.90;;;;;;4993460;28;20716;-70
2022/12/21 11:18:44;;;;;;;13.38;11.75;;;9.70;99.90;;;;;;5005256;28;21004;-69
2022/12/21 11:21:46;;;;;;;15.27;13.38;;;9.80;99.90;;;;;;4992082;28;20129;-69
2022/12/21 11:24:16;;;;;;;17.83;14.85;;;9.80;99.90;;;;;;4991984;28;20054;-70
2022/12/21 11:26:47;;;;;;;20.65;15.23;;;9.80;99.90;;;;;;4994459;28;20053;-70
2022/12/21 11:29:31;;;;;;;14.10;12.55;;;9.90;99.90;;;;;;4994707;28;20385;-69
2022/12/21 11:32:07;;;;;;;17.02;13.80;;;9.90;99.90;;;;;;4976893;28;20142;-70
2022/12/21 11:34:36;;;;;;;21.58;15.63;;;9.90;99.90;;;;;;4997396;28;20323;-70
2022/12/21 11:37:19;;;;;;;17.88;15.18;;;10.00;99.90;;;;;;4997920;28;20073;-70
2022/12/21 11:39:46;;;;;;;25.08;17.92;;;10.00;99.90;;;;;;4997202;28;20065;-69
2022/12/21 11:42:21;;;;;;;24.02;15.65;;;10.00;99.90;;;;;;4991393;28;20050;-69
2022/12/21 11:44:50;;;;;;;20.50;14.63;;;10.00;99.90;;;;;;4994081;28;20217;-69
2022/12/21 11:47:32;;;;;;;21.40;16.25;;;9.90;99.90;;;;;;4994135;28;20152;-70
2022/12/21 11:50:33;;;;;;;16.35;13.30;;;9.90;99.90;;;;;;5000632;28;20052;-70
2022/12/21 11:53:18;;;;;;;20.85;16.95;;;9.90;99.90;;;;;;5026907;28;20070;-70
2022/12/21 11:56:10;;;;;;;20.02;15.38;;;9.90;99.90;;;;;;4989824;28;20132;-70
2022/12/21 11:59:04;;;;;;;20.83;16.25;;;9.70;99.90;;;;;;4990617;28;20053;-68
2022/12/21 12:02:10;;;;;;;20.63;15.27;;;9.70;99.90;;;;;;4992976;28;20253;-69
2022/12/21 12:04:55;;;;;;;23.83;17.30;;;9.70;99.90;;;;;;4993552;28;20133;-70
2022/12/21 12:07:46;;;;;;;26.88;17.80;;;9.60;99.90;;;;;;4993766;28;20492;-71
2022/12/21 12:10:21;;;;;;;23.20;15.15;;;9.50;99.90;;;;;;4974633;28;20416;-70
2022/12/21 12:12:59;;;;;;;25.58;17.58;;;9.40;99.90;;;;;;4986924;28;20050;-70
2022/12/21 12:15:40;;;;;;;25.73;17.60;;;9.50;99.90;;;;;;4992040;28;20072;-71
2022/12/21 12:18:16;;;;;;;30.45;19.63;;;9.40;99.90;;;;;;4994806;28;20046;-69
2022/12/21 12:21:16;;;;;;;31.42;20.85;;;9.40;99.90;;;;;;4988929;28;20037;-69
2022/12/21 12:24:13;;;;;;;31.27;22.05;;;9.30;99.90;;;;;;4997803;28;20049;-70
2022/12/21 12:26:49;;;;;;;32.25;22.05;;;9.30;99.90;;;;;;5022133;28;20073;-70
2022/12/21 12:29:37;;;;;;;31.50;20.40;;;9.30;99.90;;;;;;4981462;28;20042;-69
2022/12/21 12:32:21;;;;;;;29.00;21.25;;;9.30;99.90;;;;;;4990643;28;20139;-69
2022/12/21 12:35:18;;;;;;;31.88;21.40;;;9.30;99.90;;;;;;4992125;28;20046;-70
2022/12/21 12:37:49;;;;;;;41.08;22.85;;;9.20;99.90;;;;;;4976447;28;20081;-71
2022/12/21 12:40:40;;;;;;;39.33;23.88;;;9.30;99.90;;;;;;4976431;28;20048;-70
2022/12/21 12:43:06;;;;;;;41.08;24.83;;;9.20;99.90;;;;;;4991168;28;20507;-70
2022/12/21 12:45:45;;;;;;;39.40;24.45;;;9.10;99.90;;;;;;4993182;28;20515;-70
2022/12/21 12:48:26;;;;;;;47.40;24.98;;;9.00;99.90;;;;;;4992622;28;20061;-70
2022/12/21 12:51:00;;;;;;;47.85;25.23;;;8.90;99.90;;;;;;4994514;28;20125;-69
2022/12/21 12:53:47;;;;;;;48.58;27.17;;;8.80;99.90;;;;;;4993384;28;21337;-70
2022/12/21 12:56:34;;;;;;;49.90;26.50;;;8.90;99.90;;;;;;4992578;28;20436;-70
2022/12/21 12:59:20;;;;;;;48.72;24.38;;;8.80;99.90;;;;;;4978823;28;20362;-69
2022/12/21 13:01:56;;;;;;;37.15;22.73;;;8.70;99.90;;;;;;4994679;28;20042;-69
2022/12/21 13:04:53;;;;;;;46.70;25.65;;;8.70;99.90;;;;;;4993113;28;20046;-70
2022/12/21 13:07:34;;;;;;;46.95;25.35;;;8.60;99.90;;;;;;4976514;28;20046;-71
2022/12/21 13:10:18;;;;;;;45.83;26.15;;;8.60;99.90;;;;;;4994845;28;20058;-70
2022/12/21 13:12:55;;;;;;;48.33;28.10;;;8.60;99.90;;;;;;4989508;28;20050;-69
2022/12/21 13:15:52;;;;;;;57.22;30.73;;;8.50;99.90;;;;;;5008872;28;20045;-69